Time;durP1;ratioP1;P1;durP2;ratioP2;P2;SDS_P1;SDS_P2;PMS_P1;PMS_P2;Temp;Humidity;BMP_temperature;BMP_pressure;BME280_temperature;BME280_humidity;BME280_pressure;Samples;Min_cycle;Max_cycle;Signal;HPM_P1;HPM_P2
2023/12/27 00:00:38;;;;;;;7.75;2.00;;;;;;;;;;4908819;29;20072;-74
2023/12/27 00:03:04;;;;;;;6.35;2.17;;;;;;;;;;4926242;29;20103;-73
2023/12/27 00:05:31;;;;;;;5.65;2.58;;;;;;;;;;4929177;29;20500;-73
2023/12/27 00:07:57;;;;;;;7.28;2.28;;;;;;;;;;4936076;29;20377;-73
2023/12/27 00:10:23;;;;;;;7.13;2.88;;;;;;;;;;4934600;29;20039;-73
2023/12/27 00:12:49;;;;;;;5.10;2.70;;;;;;;;;;4918426;29;20036;-74
2023/12/27 00:15:15;;;;;;;11.65;3.55;;;;;;;;;;4924852;29;20047;-73
2023/12/27 00:17:41;;;;;;;12.55;3.35;;;;;;;;;;4928479;29;20047;-73
2023/12/27 00:20:08;;;;;;;11.50;3.50;;;;;;;;;;4922827;29;20059;-73
2023/12/27 00:22:34;;;;;;;8.85;2.72;;;;;;;;;;4913522;29;20051;-73
2023/12/27 00:25:00;;;;;;;8.38;2.70;;;;;;;;;;4907162;29;20083;-74
2023/12/27 00:27:27;;;;;;;9.10;2.40;;;;;;;;;;4917251;29;20112;-74
2023/12/27 00:29:53;;;;;;;5.90;2.10;;;;;;;;;;4914811;29;20407;-73
2023/12/27 00:32:19;;;;;;;6.43;2.50;;;;;;;;;;4935595;29;20075;-74
2023/12/27 00:34:48;;;;;;;8.85;2.40;;;;;;;;;;4933035;29;20040;-73
2023/12/27 00:37:15;;;;;;;9.30;2.30;;;;;;;;;;4919730;29;20058;-73
2023/12/27 00:39:41;;;;;;;5.07;2.47;;;;;;;;;;4935165;29;20047;-73
2023/12/27 00:42:08;;;;;;;6.03;2.38;;;;;;;;;;4935159;29;20453;-74
2023/12/27 00:44:34;;;;;;;6.35;2.20;;;;;;;;;;4924298;29;20075;-74
2023/12/27 00:47:00;;;;;;;5.93;2.28;;;;;;;;;;4927496;29;20044;-73
2023/12/27 00:49:26;;;;;;;5.82;2.38;;;;;;;;;;4905855;29;20047;-74
2023/12/27 00:51:52;;;;;;;5.30;1.90;;;;;;;;;;4933628;29;20035;-74
2023/12/27 00:54:19;;;;;;;4.30;2.00;;;;;;;;;;4918596;29;20090;-74
2023/12/27 00:56:45;;;;;;;6.60;2.20;;;;;;;;;;4919273;29;20040;-74
2023/12/27 00:59:11;;;;;;;8.68;2.53;;;;;;;;;;4906000;29;20067;-74
2023/12/27 01:01:37;;;;;;;9.07;2.60;;;;;;;;;;4917176;29;20515;-74
2023/12/27 01:04:03;;;;;;;6.68;2.13;;;;;;;;;;4917782;29;20040;-74
2023/12/27 01:06:29;;;;;;;6.28;1.92;;;;;;;;;;4901203;29;20044;-74
2023/12/27 01:08:55;;;;;;;6.18;2.15;;;;;;;;;;4933760;29;20064;-74
2023/12/27 01:11:22;;;;;;;10.43;2.22;;;;;;;;;;4930258;29;20103;-74
2023/12/27 01:13:48;;;;;;;7.85;2.30;;;;;;;;;;4886538;29;20047;-74
2023/12/27 01:16:15;;;;;;;8.77;2.20;;;;;;;;;;4928713;29;20046;-74
2023/12/27 01:18:41;;;;;;;9.13;2.60;;;;;;;;;;4934548;29;20064;-74
2023/12/27 01:21:07;;;;;;;8.27;2.10;;;;;;;;;;4917360;29;20122;-74
2023/12/27 01:23:33;;;;;;;5.65;2.60;;;;;;;;;;4934189;29;20503;-74
2023/12/27 01:26:00;;;;;;;5.28;2.20;;;;;;;;;;4927053;29;20091;-74
2023/12/27 01:28:26;;;;;;;5.93;2.33;;;;;;;;;;4923399;29;20062;-74
2023/12/27 01:30:52;;;;;;;6.72;2.28;;;;;;;;;;4918302;29;20044;-74
2023/12/27 01:33:18;;;;;;;5.53;2.13;;;;;;;;;;4932909;29;20048;-74
2023/12/27 01:35:45;;;;;;;10.05;2.42;;;;;;;;;;4930883;29;20040;-74
2023/12/27 01:38:11;;;;;;;6.25;2.20;;;;;;;;;;4917034;29;20047;-74
2023/12/27 01:40:37;;;;;;;5.60;2.58;;;;;;;;;;4919304;29;20127;-74
2023/12/27 01:43:03;;;;;;;4.47;2.08;;;;;;;;;;4933851;29;20045;-74
2023/12/27 01:45:29;;;;;;;6.68;1.98;;;;;;;;;;4933194;29;20378;-74
2023/12/27 01:47:56;;;;;;;7.65;3.15;;;;;;;;;;4918251;29;20036;-74
2023/12/27 01:50:22;;;;;;;4.70;2.40;;;;;;;;;;4932947;29;20043;-74
2023/12/27 01:52:48;;;;;;;6.45;2.40;;;;;;;;;;4919510;29;20164;-74
2023/12/27 01:55:15;;;;;;;5.72;2.28;;;;;;;;;;4917945;29;20432;-74
2023/12/27 01:57:42;;;;;;;6.93;2.20;;;;;;;;;;4913711;29;20428;-74
2023/12/27 02:00:09;;;;;;;4.10;2.30;;;;;;;;;;4891213;29;20188;-74
2023/12/27 02:02:37;;;;;;;7.22;2.67;;;;;;;;;;4924834;29;20051;-74
2023/12/27 02:05:03;;;;;;;5.15;2.08;;;;;;;;;;4933723;29;20499;-74
2023/12/27 02:07:29;;;;;;;8.95;2.67;;;;;;;;;;4925609;29;20048;-74
2023/12/27 02:09:55;;;;;;;7.22;2.20;;;;;;;;;;4918116;29;20402;-74
2023/12/27 02:12:25;;;;;;;4.88;2.08;;;;;;;;;;4923735;29;20036;-74
2023/12/27 02:14:51;;;;;;;6.32;1.95;;;;;;;;;;4933755;29;20123;-74
2023/12/27 02:17:18;;;;;;;3.40;2.03;;;;;;;;;;4933485;29;20076;-74
2023/12/27 02:19:44;;;;;;;6.55;2.20;;;;;;;;;;4931189;29;20060;-74
2023/12/27 02:22:12;;;;;;;6.45;2.20;;;;;;;;;;4916884;29;20059;-74
2023/12/27 02:24:38;;;;;;;6.90;2.20;;;;;;;;;;4917551;29;21004;-74
2023/12/27 02:27:04;;;;;;;6.85;1.95;;;;;;;;;;4900518;29;20503;-74
2023/12/27 02:29:30;;;;;;;7.18;2.30;;;;;;;;;;4901618;29;20050;-74
2023/12/27 02:31:56;;;;;;;6.53;2.90;;;;;;;;;;4916085;29;20068;-74
2023/12/27 02:34:23;;;;;;;4.72;2.10;;;;;;;;;;4899310;29;20119;-74
2023/12/27 02:36:49;;;;;;;3.90;2.60;;;;;;;;;;4916933;29;20054;-74
2023/12/27 02:39:15;;;;;;;4.38;2.10;;;;;;;;;;4921136;29;20437;-74
2023/12/27 02:41:41;;;;;;;6.35;2.17;;;;;;;;;;4925435;29;20044;-74
2023/12/27 02:44:07;;;;;;;8.57;2.30;;;;;;;;;;4931187;29;20160;-74
2023/12/27 02:46:36;;;;;;;7.07;2.15;;;;;;;;;;4918517;29;20075;-77
2023/12/27 02:49:02;;;;;;;6.93;2.10;;;;;;;;;;4912983;29;20032;-76
2023/12/27 02:51:28;;;;;;;4.40;2.10;;;;;;;;;;4895870;29;20071;-77
2023/12/27 02:53:54;;;;;;;7.32;2.17;;;;;;;;;;4899678;29;20040;-77
2023/12/27 02:56:20;;;;;;;6.35;2.42;;;;;;;;;;4933223;29;20156;-76
2023/12/27 02:58:46;;;;;;;5.68;2.10;;;;;;;;;;4929404;29;20044;-76
2023/12/27 03:01:12;;;;;;;5.18;2.25;;;;;;;;;;4915987;29;20048;-76
2023/12/27 03:03:39;;;;;;;3.53;2.22;;;;;;;;;;4912526;29;20548;-77
2023/12/27 03:06:06;;;;;;;8.15;2.22;;;;;;;;;;4920864;29;20043;-76
2023/12/27 03:08:33;;;;;;;7.50;2.47;;;;;;;;;;4925426;29;20044;-76
2023/12/27 03:10:59;;;;;;;6.18;2.25;;;;;;;;;;4930424;29;20122;-76
2023/12/27 03:13:25;;;;;;;9.00;2.60;;;;;;;;;;4927196;29;20056;-79
2023/12/27 03:15:51;;;;;;;5.90;2.38;;;;;;;;;;4914760;29;20046;-76
2023/12/27 03:18:17;;;;;;;6.55;2.22;;;;;;;;;;4905354;29;20044;-79
2023/12/27 03:20:43;;;;;;;6.85;2.30;;;;;;;;;;4931641;29;20082;-76
2023/12/27 03:23:09;;;;;;;9.45;2.20;;;;;;;;;;4903965;29;20110;-76
2023/12/27 03:25:35;;;;;;;8.80;2.30;;;;;;;;;;4918529;29;20035;-76
2023/12/27 03:28:01;;;;;;;8.27;2.20;;;;;;;;;;4892700;29;20070;-76
2023/12/27 03:30:27;;;;;;;4.30;2.13;;;;;;;;;;4934078;29;20388;-76
2023/12/27 03:32:53;;;;;;;8.55;3.03;;;;;;;;;;4923030;29;20125;-77
2023/12/27 03:35:19;;;;;;;7.05;2.50;;;;;;;;;;4920457;29;20040;-76
2023/12/27 03:37:46;;;;;;;5.97;2.25;;;;;;;;;;4902490;29;20443;-77
2023/12/27 03:40:12;;;;;;;4.78;2.22;;;;;;;;;;4931591;29;20043;-76
2023/12/27 03:42:38;;;;;;;7.85;2.42;;;;;;;;;;4924262;29;20058;-76
2023/12/27 03:45:04;;;;;;;4.30;1.65;;;;;;;;;;4932096;29;20044;-76
2023/12/27 03:47:30;;;;;;;5.53;2.28;;;;;;;;;;4917451;29;20061;-76
2023/12/27 03:49:56;;;;;;;9.15;2.63;;;;;;;;;;4928390;29;20063;-77
2023/12/27 03:52:23;;;;;;;7.35;2.67;;;;;;;;;;4912264;29;20079;-76
2023/12/27 03:54:49;;;;;;;6.15;2.20;;;;;;;;;;4922821;29;20178;-76
2023/12/27 03:57:15;;;;;;;5.70;2.30;;;;;;;;;;4927641;29;20043;-76
2023/12/27 03:59:41;;;;;;;6.80;2.47;;;;;;;;;;4935280;29;20046;-77
2023/12/27 04:02:07;;;;;;;3.67;2.10;;;;;;;;;;4926156;29;20130;-76
2023/12/27 04:04:33;;;;;;;5.28;2.60;;;;;;;;;;4919435;29;20831;-76
2023/12/27 04:07:00;;;;;;;6.53;2.45;;;;;;;;;;4920738;29;20492;-76
2023/12/27 04:09:26;;;;;;;9.38;2.45;;;;;;;;;;4925651;29;20039;-76
2023/12/27 04:11:52;;;;;;;8.35;2.40;;;;;;;;;;4906199;29;20059;-76
2023/12/27 04:14:18;;;;;;;8.88;2.28;;;;;;;;;;4918402;29;20040;-76
2023/12/27 04:16:44;;;;;;;8.77;2.60;;;;;;;;;;4923981;29;20035;-79
2023/12/27 04:19:10;;;;;;;7.57;2.30;;;;;;;;;;4933296;29;20055;-76
2023/12/27 04:21:37;;;;;;;8.75;2.60;;;;;;;;;;4931663;29;20114;-76
2023/12/27 04:24:03;;;;;;;5.00;2.55;;;;;;;;;;4924059;29;20044;-79
2023/12/27 04:26:29;;;;;;;5.10;2.20;;;;;;;;;;4923615;29;20090;-78
2023/12/27 04:28:55;;;;;;;7.03;2.33;;;;;;;;;;4934885;29;20448;-76
2023/12/27 04:31:21;;;;;;;8.27;2.47;;;;;;;;;;4926485;29;20047;-77
2023/12/27 04:33:47;;;;;;;7.63;2.63;;;;;;;;;;4930640;29;20032;-77
2023/12/27 04:36:13;;;;;;;8.90;2.63;;;;;;;;;;4919352;29;20046;-76
2023/12/27 04:38:39;;;;;;;13.48;2.88;;;;;;;;;;4928629;29;20043;-77
2023/12/27 04:41:09;;;;;;;6.47;3.20;;;;;;;;;;4929589;29;20400;-76
2023/12/27 04:43:36;;;;;;;4.18;2.45;;;;;;;;;;4925857;28;20095;-77
2023/12/27 04:46:06;;;;;;;4.85;2.15;;;;;;;;;;4932513;29;20043;-76
2023/12/27 04:48:33;;;;;;;7.60;2.67;;;;;;;;;;4925863;29;20405;-76
2023/12/27 04:50:59;;;;;;;7.00;2.88;;;;;;;;;;4937183;29;20122;-77
2023/12/27 04:53:25;;;;;;;7.57;2.78;;;;;;;;;;4931176;29;20035;-77
2023/12/27 04:55:51;;;;;;;9.07;2.60;;;;;;;;;;4928576;29;20058;-77
2023/12/27 04:58:17;;;;;;;8.68;2.83;;;;;;;;;;4915993;29;20054;-77
2023/12/27 05:00:43;;;;;;;9.57;2.80;;;;;;;;;;4929728;29;20079;-76
2023/12/27 05:03:09;;;;;;;9.50;3.30;;;;;;;;;;4904912;29;20035;-76
2023/12/27 05:05:35;;;;;;;9.02;3.10;;;;;;;;;;4916881;29;20035;-77
2023/12/27 05:08:01;;;;;;;6.65;2.75;;;;;;;;;;4930863;29;20138;-77
2023/12/27 05:10:27;;;;;;;6.57;2.58;;;;;;;;;;4911822;29;20040;-77
2023/12/27 05:12:53;;;;;;;7.25;3.33;;;;;;;;;;4933231;29;20424;-77
2023/12/27 05:15:20;;;;;;;7.35;2.83;;;;;;;;;;4930993;29;20039;-77
2023/12/27 05:17:46;;;;;;;7.95;3.15;;;;;;;;;;4925627;29;20135;-77
2023/12/27 05:20:13;;;;;;;7.63;2.78;;;;;;;;;;4896823;29;20051;-77
2023/12/27 05:22:44;;;;;;;11.75;2.97;;;;;;;;;;4924713;29;20131;-77
2023/12/27 05:25:10;;;;;;;5.07;2.60;;;;;;;;;;4922289;29;20048;-77
2023/12/27 05:27:36;;;;;;;10.95;2.80;;;;;;;;;;4930296;29;20118;-77
2023/12/27 05:30:03;;;;;;;5.88;2.70;;;;;;;;;;4922959;29;20036;-78
2023/12/27 05:32:29;;;;;;;4.47;2.50;;;;;;;;;;4921408;29;20051;-77
2023/12/27 05:34:55;;;;;;;10.90;2.80;;;;;;;;;;4915366;29;20077;-75
2023/12/27 05:37:21;;;;;;;10.90;3.05;;;;;;;;;;4914642;29;20046;-77
2023/12/27 05:39:48;;;;;;;6.70;2.78;;;;;;;;;;4920547;28;20105;-79
2023/12/27 05:42:14;;;;;;;5.65;2.60;;;;;;;;;;4928897;29;20177;-80
2023/12/27 05:44:40;;;;;;;6.32;2.80;;;;;;;;;;4918864;29;20073;-77
2023/12/27 05:47:06;;;;;;;10.32;2.80;;;;;;;;;;4939360;29;20041;-77
2023/12/27 05:49:33;;;;;;;11.43;2.78;;;;;;;;;;4930578;29;20447;-77
2023/12/27 05:51:59;;;;;;;9.30;3.20;;;;;;;;;;4935485;29;20035;-77
2023/12/27 05:54:26;;;;;;;6.93;2.95;;;;;;;;;;4929995;29;20051;-77
2023/12/27 05:56:53;;;;;;;6.82;2.90;;;;;;;;;;4925619;29;20043;-78
2023/12/27 05:59:19;;;;;;;7.28;2.70;;;;;;;;;;4894257;29;20044;-78
2023/12/27 06:01:54;;;;;;;9.48;2.80;;;;;;;;;;4925656;29;20039;-78
2023/12/27 06:04:21;;;;;;;13.23;3.50;;;;;;;;;;4937193;29;20051;-78
2023/12/27 06:06:49;;;;;;;8.55;2.63;;;;;;;;;;4929403;28;20051;-78
2023/12/27 06:09:18;;;;;;;9.63;2.65;;;;;;;;;;4936238;29;20047;-78
2023/12/27 06:11:45;;;;;;;5.13;2.72;;;;;;;;;;4925553;29;20036;-78
2023/12/27 06:14:11;;;;;;;10.70;3.00;;;;;;;;;;4910418;29;20031;-77
2023/12/27 06:16:37;;;;;;;5.68;2.55;;;;;;;;;;4930387;29;20484;-78
2023/12/27 06:19:03;;;;;;;8.60;2.70;;;;;;;;;;4929120;29;20055;-78
2023/12/27 06:21:29;;;;;;;13.75;3.00;;;;;;;;;;4931634;28;20122;-78
2023/12/27 06:23:56;;;;;;;11.48;3.20;;;;;;;;;;4924947;29;20178;-78
2023/12/27 06:26:22;;;;;;;9.77;2.80;;;;;;;;;;4930571;29;20046;-77
2023/12/27 06:28:48;;;;;;;8.60;2.50;;;;;;;;;;4916316;29;20039;-77
2023/12/27 06:31:14;;;;;;;9.10;3.08;;;;;;;;;;4938595;29;20039;-78
2023/12/27 06:33:40;;;;;;;8.90;2.40;;;;;;;;;;4922645;29;20039;-78
2023/12/27 06:36:07;;;;;;;10.80;3.03;;;;;;;;;;4923088;29;20031;-78
2023/12/27 06:38:33;;;;;;;10.13;2.90;;;;;;;;;;4921008;29;20054;-78
2023/12/27 06:41:07;;;;;;;10.55;2.97;;;;;;;;;;4931802;29;20058;-78
2023/12/27 06:43:33;;;;;;;9.55;2.70;;;;;;;;;;4919496;29;20066;-80
2023/12/27 06:46:00;;;;;;;10.55;2.45;;;;;;;;;;4904425;29;20405;-78
2023/12/27 06:48:26;;;;;;;8.13;2.78;;;;;;;;;;4919694;29;20036;-80
2023/12/27 06:50:53;;;;;;;9.45;2.60;;;;;;;;;;4904243;29;20634;-78
2023/12/27 06:53:19;;;;;;;6.07;2.20;;;;;;;;;;4888233;29;20078;-79
2023/12/27 06:55:46;;;;;;;12.50;3.70;;;;;;;;;;4903647;29;20046;-79
2023/12/27 06:58:12;;;;;;;6.88;2.88;;;;;;;;;;4907972;29;20107;-79
2023/12/27 07:00:38;;;;;;;8.32;2.40;;;;;;;;;;4936803;29;20078;-80
2023/12/27 07:03:05;;;;;;;10.93;3.22;;;;;;;;;;4923010;29;20067;-80
2023/12/27 07:05:34;;;;;;;16.63;2.70;;;;;;;;;;4935339;29;20039;-79
2023/12/27 07:08:00;;;;;;;12.23;2.47;;;;;;;;;;4903080;29;20044;-80
2023/12/27 07:10:27;;;;;;;9.02;2.53;;;;;;;;;;4904026;29;20051;-80
2023/12/27 07:12:53;;;;;;;7.22;2.38;;;;;;;;;;4919392;29;20047;-79
2023/12/27 07:15:19;;;;;;;9.50;2.30;;;;;;;;;;4904018;29;20094;-80
2023/12/27 07:17:47;;;;;;;8.85;2.58;;;;;;;;;;4888706;29;20040;-79
2023/12/27 07:20:14;;;;;;;9.43;2.20;;;;;;;;;;4903652;29;20122;-80
2023/12/27 07:22:40;;;;;;;7.45;2.40;;;;;;;;;;4919129;29;20400;-79
2023/12/27 07:25:07;;;;;;;8.60;2.92;;;;;;;;;;4904698;29;20070;-79
2023/12/27 07:27:33;;;;;;;5.97;2.33;;;;;;;;;;4913936;29;20404;-80
2023/12/27 07:29:59;;;;;;;7.88;2.65;;;;;;;;;;4909899;29;20071;-79
2023/12/27 07:32:26;;;;;;;13.00;2.88;;;;;;;;;;4906573;28;20047;-80
2023/12/27 07:34:57;;;;;;;12.55;2.85;;;;;;;;;;4920252;29;20395;-79
2023/12/27 07:37:27;;;;;;;10.70;2.97;;;;;;;;;;4897410;29;20048;-79
2023/12/27 07:39:56;;;;;;;7.28;2.50;;;;;;;;;;4919236;29;20043;-78
2023/12/27 07:42:24;;;;;;;7.60;2.40;;;;;;;;;;4919247;29;20060;-78
2023/12/27 07:44:51;;;;;;;9.52;2.50;;;;;;;;;;4934434;28;20048;-78
2023/12/27 07:47:17;;;;;;;11.50;3.00;;;;;;;;;;4937175;29;20047;-78
2023/12/27 07:49:43;;;;;;;11.95;2.50;;;;;;;;;;4937400;29;20075;-78
2023/12/27 07:52:09;;;;;;;11.68;3.25;;;;;;;;;;4921221;29;20484;-78
2023/12/27 07:54:39;;;;;;;12.50;3.10;;;;;;;;;;4921926;29;20070;-77
2023/12/27 07:57:05;;;;;;;8.95;2.60;;;;;;;;;;4921746;29;20054;-76
2023/12/27 07:59:31;;;;;;;12.68;2.47;;;;;;;;;;4921968;29;20051;-75
2023/12/27 08:01:58;;;;;;;11.85;3.20;;;;;;;;;;4928392;29;20500;-76
2023/12/27 08:04:24;;;;;;;10.10;2.65;;;;;;;;;;4903291;29;20059;-77
2023/12/27 08:06:51;;;;;;;10.55;2.60;;;;;;;;;;4903998;29;20114;-81
2023/12/27 08:09:18;;;;;;;13.90;3.40;;;;;;;;;;4922084;29;20488;-77
2023/12/27 08:11:45;;;;;;;8.05;2.80;;;;;;;;;;4912639;29;20036;-76
2023/12/27 08:14:12;;;;;;;9.15;2.40;;;;;;;;;;4936909;28;20583;-76
2023/12/27 08:16:41;;;;;;;12.10;2.80;;;;;;;;;;4911205;29;20476;-76
2023/12/27 08:19:08;;;;;;;12.23;3.00;;;;;;;;;;4910633;29;20563;-77
2023/12/27 08:21:34;;;;;;;8.77;2.47;;;;;;;;;;4909591;29;20103;-79
2023/12/27 08:24:00;;;;;;;13.25;2.67;;;;;;;;;;4907328;29;20058;-79
2023/12/27 08:26:26;;;;;;;9.00;3.08;;;;;;;;;;4917584;28;20450;-79
2023/12/27 08:28:53;;;;;;;8.32;2.70;;;;;;;;;;4925759;29;20040;-76
2023/12/27 08:31:22;;;;;;;9.13;3.38;;;;;;;;;;4925407;29;20027;-76
2023/12/27 08:33:51;;;;;;;14.98;2.45;;;;;;;;;;4939100;29;20046;-75
2023/12/27 08:36:17;;;;;;;9.90;2.50;;;;;;;;;;4921770;29;20039;-76
2023/12/27 08:38:44;;;;;;;11.93;3.35;;;;;;;;;;4921567;29;20070;-76
2023/12/27 08:41:31;;;;;;;10.73;2.75;;;;;;;;;;4921584;29;20046;-76
2023/12/27 08:43:56;;;;;;;12.15;3.13;;;;;;;;;;4920989;29;20049;-75
2023/12/27 08:46:23;;;;;;;10.80;2.72;;;;;;;;;;4915137;29;20094;-76
2023/12/27 08:48:50;;;;;;;13.63;2.50;;;;;;;;;;4940511;29;20049;-75
2023/12/27 08:51:16;;;;;;;12.32;2.80;;;;;;;;;;4908975;29;20050;-75
2023/12/27 08:53:42;;;;;;;11.90;2.63;;;;;;;;;;4909317;29;20040;-79
2023/12/27 08:56:08;;;;;;;11.05;2.50;;;;;;;;;;4890140;29;20046;-79
2023/12/27 08:58:35;;;;;;;14.18;2.80;;;;;;;;;;4905612;29;20051;-78
2023/12/27 09:01:02;;;;;;;6.95;2.80;;;;;;;;;;4925003;29;20047;-78
2023/12/27 09:03:28;;;;;;;9.45;2.40;;;;;;;;;;4924142;29;20040;-78
2023/12/27 09:05:54;;;;;;;12.88;3.13;;;;;;;;;;4924121;29;20509;-78
2023/12/27 09:08:20;;;;;;;10.50;3.38;;;;;;;;;;4939493;28;20047;-78
2023/12/27 09:10:46;;;;;;;8.18;2.80;;;;;;;;;;4939695;29;20043;-78
2023/12/27 09:13:12;;;;;;;7.75;2.30;;;;;;;;;;4924060;29;20400;-77
2023/12/27 09:15:38;;;;;;;9.27;2.67;;;;;;;;;;4924125;29;20102;-78
2023/12/27 09:18:04;;;;;;;12.55;2.78;;;;;;;;;;4938549;29;20039;-78
2023/12/27 09:20:31;;;;;;;14.98;2.63;;;;;;;;;;4923249;28;20059;-78
2023/12/27 09:22:57;;;;;;;15.00;3.42;;;;;;;;;;4924089;28;20055;-78
2023/12/27 09:25:23;;;;;;;8.15;2.53;;;;;;;;;;4939649;29;20083;-78
2023/12/27 09:27:49;;;;;;;11.60;2.70;;;;;;;;;;4939392;29;20043;-79
2023/12/27 09:30:15;;;;;;;7.40;2.40;;;;;;;;;;4939550;29;20046;-79
2023/12/27 09:32:43;;;;;;;18.30;2.67;;;;;;;;;;4939383;29;20035;-78
2023/12/27 09:35:09;;;;;;;12.00;2.50;;;;;;;;;;4939277;28;20047;-78
2023/12/27 09:37:35;;;;;;;6.65;2.47;;;;;;;;;;4927632;29;20106;-78
2023/12/27 09:40:03;;;;;;;12.18;2.75;;;;;;;;;;4920566;29;20051;-78
2023/12/27 09:42:32;;;;;;;12.40;2.63;;;;;;;;;;4920160;29;20094;-78
2023/12/27 09:44:59;;;;;;;9.32;2.78;;;;;;;;;;4920323;29;20052;-78
2023/12/27 09:47:26;;;;;;;8.68;2.88;;;;;;;;;;4919919;29;20067;-78
2023/12/27 09:49:55;;;;;;;12.10;3.10;;;;;;;;;;4919724;29;20091;-78
2023/12/27 09:52:22;;;;;;;9.88;2.65;;;;;;;;;;4919885;29;20047;-78
2023/12/27 09:54:48;;;;;;;8.35;2.75;;;;;;;;;;4920257;29;20039;-78
2023/12/27 09:57:14;;;;;;;13.43;3.10;;;;;;;;;;4920316;29;20044;-78
2023/12/27 09:59:42;;;;;;;17.58;3.30;;;;;;;;;;4912075;29;20051;-78
2023/12/27 10:02:19;;;;;;;8.02;3.08;;;;;;;;;;4937423;29;20035;-78
2023/12/27 10:05:06;;;;;;;13.63;3.22;;;;;;;;;;4925678;29;20051;-78
2023/12/27 10:07:33;;;;;;;12.75;5.00;;;;;;;;;;4927796;29;20054;-78
2023/12/27 10:10:00;;;;;;;10.60;3.70;;;;;;;;;;4895817;29;20472;-78
2023/12/27 10:12:26;;;;;;;14.80;3.60;;;;;;;;;;4919722;29;20039;-78
2023/12/27 10:14:53;;;;;;;13.23;3.83;;;;;;;;;;4923812;29;20035;-78
2023/12/27 10:17:19;;;;;;;10.45;3.40;;;;;;;;;;4925058;29;20051;-78
2023/12/27 10:19:45;;;;;;;12.57;3.40;;;;;;;;;;4934116;29;20511;-77
2023/12/27 10:22:13;;;;;;;12.63;3.55;;;;;;;;;;4928284;29;20048;-78
2023/12/27 10:24:39;;;;;;;12.88;4.03;;;;;;;;;;4931430;29;20046;-78
2023/12/27 10:27:06;;;;;;;11.45;3.83;;;;;;;;;;4913552;29;21250;-78
2023/12/27 10:29:32;;;;;;;17.33;5.30;;;;;;;;;;4927517;29;20510;-78
2023/12/27 10:31:59;;;;;;;11.68;3.92;;;;;;;;;;4913133;29;20412;-78
2023/12/27 10:34:25;;;;;;;11.18;4.00;;;;;;;;;;4923614;29;20044;-78
2023/12/27 10:36:52;;;;;;;13.65;4.60;;;;;;;;;;4908419;29;20047;-78
2023/12/27 10:39:18;;;;;;;12.95;4.50;;;;;;;;;;4924244;29;20044;-78
2023/12/27 10:41:44;;;;;;;12.38;4.10;;;;;;;;;;4913060;29;20135;-77
2023/12/27 10:44:11;;;;;;;10.55;4.40;;;;;;;;;;4927094;29;20615;-77
2023/12/27 10:46:38;;;;;;;9.25;4.65;;;;;;;;;;4934918;29;20043;-77
2023/12/27 10:49:05;;;;;;;13.45;4.57;;;;;;;;;;4927005;29;20048;-77
2023/12/27 10:51:37;;;;;;;18.90;4.80;;;;;;;;;;4934969;29;20044;-78
2023/12/27 10:54:04;;;;;;;11.27;4.75;;;;;;;;;;4913638;29;20049;-77
2023/12/27 10:56:35;;;;;;;19.08;5.32;;;;;;;;;;4929899;29;20075;-78
2023/12/27 10:59:04;;;;;;;17.57;5.33;;;;;;;;;;4918130;29;20122;-77
2023/12/27 11:01:31;;;;;;;14.23;4.75;;;;;;;;;;4918961;29;20047;-77
2023/12/27 11:03:58;;;;;;;21.60;5.53;;;;;;;;;;4930620;29;20074;-77
2023/12/27 11:06:25;;;;;;;8.85;4.70;;;;;;;;;;4926974;29;20047;-78
2023/12/27 11:08:52;;;;;;;13.40;5.25;;;;;;;;;;4900592;29;20563;-78
2023/12/27 11:11:20;;;;;;;12.02;5.78;;;;;;;;;;4942745;29;20031;-77
2023/12/27 11:13:47;;;;;;;13.20;6.45;;;;;;;;;;4911794;29;20042;-77
2023/12/27 11:16:14;;;;;;;10.25;6.40;;;;;;;;;;4929963;29;20039;-77
2023/12/27 11:18:40;;;;;;;14.90;5.68;;;;;;;;;;4955165;28;20054;-77
2023/12/27 11:21:06;;;;;;;15.57;6.07;;;;;;;;;;4931900;29;20047;-78
2023/12/27 11:23:32;;;;;;;11.20;5.70;;;;;;;;;;4923947;29;20043;-78
2023/12/27 11:26:00;;;;;;;11.40;6.38;;;;;;;;;;4925923;29;20165;-78
2023/12/27 11:28:26;;;;;;;15.57;6.00;;;;;;;;;;4897939;29;20043;-78
2023/12/27 11:30:54;;;;;;;18.67;7.10;;;;;;;;;;4905142;29;20038;-78
2023/12/27 11:33:23;;;;;;;14.75;7.20;;;;;;;;;;4913094;29;20392;-77
2023/12/27 11:35:51;;;;;;;13.60;6.75;;;;;;;;;;4930919;29;20464;-77
2023/12/27 11:38:20;;;;;;;13.25;6.90;;;;;;;;;;4928142;28;20035;-77
2023/12/27 11:40:47;;;;;;;18.45;7.80;;;;;;;;;;4924378;29;20043;-77
2023/12/27 11:43:19;;;;;;;16.42;7.82;;;;;;;;;;4928459;29;20098;-77
2023/12/27 11:46:06;;;;;;;15.73;6.90;;;;;;;;;;4928404;29;20050;-78
2023/12/27 11:48:33;;;;;;;15.32;7.40;;;;;;;;;;4931611;28;20047;-78
2023/12/27 11:51:00;;;;;;;11.43;7.38;;;;;;;;;;4937996;29;20043;-77
2023/12/27 11:53:27;;;;;;;14.15;7.53;;;;;;;;;;4934648;29;20047;-77
2023/12/27 11:55:53;;;;;;;12.38;7.45;;;;;;;;;;4917218;29;20086;-77
2023/12/27 11:58:30;;;;;;;10.68;7.18;;;;;;;;;;4952370;29;20060;-78
2023/12/27 12:00:56;;;;;;;10.20;7.00;;;;;;;;;;4894749;29;20118;-78
2023/12/27 12:03:29;;;;;;;10.60;6.93;;;;;;;;;;4916424;29;20043;-78
2023/12/27 12:06:18;;;;;;;19.48;8.52;;;;;;;;;;4911811;29;20035;-78
2023/12/27 12:08:49;;;;;;;11.00;6.93;;;;;;;;;;4917666;29;20056;-77
2023/12/27 12:11:16;;;;;;;13.10;7.30;;;;;;;;;;4945445;29;20036;-76
2023/12/27 12:13:44;;;;;;;13.23;7.30;;;;;;;;;;4938084;28;20492;-77
2023/12/27 12:16:11;;;;;;;10.32;7.43;;;;;;;;;;4896923;29;20392;-78
2023/12/27 12:18:39;;;;;;;10.45;7.18;;;;;;;;;;4928753;29;20036;-78
2023/12/27 12:21:05;;;;;;;10.25;7.07;;;;;;;;;;4937498;29;20075;-78
2023/12/27 12:23:32;;;;;;;11.13;7.25;;;;;;;;;;4931625;29;20039;-78
2023/12/27 12:26:00;;;;;;;10.60;7.10;;;;;;;;;;4927591;29;20058;-79
2023/12/27 12:28:27;;;;;;;9.15;7.57;;;;;;;;;;4926919;29;20566;-79
2023/12/27 12:30:55;;;;;;;10.23;6.72;;;;;;;;;;4929682;29;20043;-79
2023/12/27 12:33:21;;;;;;;10.98;7.32;;;;;;;;;;4935666;29;20050;-78
2023/12/27 12:35:48;;;;;;;10.48;6.72;;;;;;;;;;4928994;29;20042;-79
2023/12/27 12:38:14;;;;;;;9.80;7.03;;;;;;;;;;4929778;29;20043;-79
2023/12/27 12:40:40;;;;;;;9.23;7.20;;;;;;;;;;4930420;29;20053;-79
2023/12/27 12:43:07;;;;;;;10.13;7.55;;;;;;;;;;4910125;29;20032;-79
2023/12/27 12:45:35;;;;;;;8.70;7.03;;;;;;;;;;4926607;29;20047;-79
2023/12/27 12:48:01;;;;;;;10.02;7.45;;;;;;;;;;4925280;29;20096;-79
2023/12/27 12:50:27;;;;;;;11.75;7.55;;;;;;;;;;4933615;29;20124;-78
2023/12/27 12:52:54;;;;;;;8.93;7.80;;;;;;;;;;4917815;29;20118;-78
2023/12/27 12:55:22;;;;;;;13.60;9.23;;;;;;;;;;4939982;28;20054;-78
2023/12/27 12:57:48;;;;;;;11.25;8.65;;;;;;;;;;4939881;29;20404;-78
2023/12/27 13:00:21;;;;;;;12.05;8.57;;;;;;;;;;4940530;29;20495;-79
2023/12/27 13:02:53;;;;;;;11.68;8.65;;;;;;;;;;4925145;29;20423;-78
2023/12/27 13:05:21;;;;;;;10.85;8.27;;;;;;;;;;4923174;29;20045;-80
2023/12/27 13:07:48;;;;;;;11.77;9.13;;;;;;;;;;4905324;29;20157;-79
2023/12/27 13:10:14;;;;;;;13.10;8.70;;;;;;;;;;4921732;29;20480;-79
2023/12/27 13:12:41;;;;;;;12.98;8.85;;;;;;;;;;4922122;29;20090;-79
2023/12/27 13:15:07;;;;;;;12.05;8.77;;;;;;;;;;4890244;29;20090;-78
2023/12/27 13:17:33;;;;;;;12.00;9.38;;;;;;;;;;4890464;29;20054;-79
2023/12/27 13:20:00;;;;;;;13.95;10.02;;;;;;;;;;4920652;29;20055;-80
2023/12/27 13:22:27;;;;;;;16.23;9.38;;;;;;;;;;4888601;29;20048;-80
2023/12/27 13:24:57;;;;;;;13.27;9.52;;;;;;;;;;4920421;29;20484;-79
2023/12/27 13:27:23;;;;;;;15.20;10.52;;;;;;;;;;4919880;29;20132;-80
2023/12/27 13:29:49;;;;;;;15.93;10.15;;;;;;;;;;4904352;29;20489;-79
2023/12/27 13:32:15;;;;;;;12.30;9.80;;;;;;;;;;4920085;29;20044;-81
2023/12/27 13:34:41;;;;;;;13.02;9.90;;;;;;;;;;4919820;29;20527;-79
2023/12/27 13:37:08;;;;;;;14.57;10.25;;;;;;;;;;4920136;29;20055;-77
2023/12/27 13:39:34;;;;;;;11.75;9.35;;;;;;;;;;4905298;29;20043;-78
2023/12/27 13:42:00;;;;;;;16.95;10.05;;;;;;;;;;4889590;29;20035;-78
2023/12/27 13:44:27;;;;;;;15.27;10.20;;;;;;;;;;4925682;29;20488;-80
2023/12/27 13:46:53;;;;;;;13.77;10.15;;;;;;;;;;4907314;29;20038;-79
2023/12/27 13:49:19;;;;;;;15.90;10.25;;;;;;;;;;4922809;28;20035;-80
2023/12/27 13:51:46;;;;;;;14.43;10.55;;;;;;;;;;4922643;28;20079;-79
2023/12/27 13:54:12;;;;;;;16.98;11.75;;;;;;;;;;4907471;29;20083;-79
2023/12/27 13:56:42;;;;;;;15.38;11.15;;;;;;;;;;4923244;29;20043;-80
2023/12/27 13:59:10;;;;;;;13.82;10.25;;;;;;;;;;4938318;28;20082;-80
2023/12/27 14:01:39;;;;;;;16.60;10.77;;;;;;;;;;4922928;29;20049;-79
2023/12/27 14:04:09;;;;;;;17.58;11.27;;;;;;;;;;4914318;29;20542;-79
2023/12/27 14:06:36;;;;;;;16.23;11.07;;;;;;;;;;4916909;29;20074;-80
2023/12/27 14:09:04;;;;;;;19.00;10.77;;;;;;;;;;4904186;29;20040;-79
2023/12/27 14:11:30;;;;;;;12.88;10.30;;;;;;;;;;4920055;29;20393;-79
2023/12/27 14:13:57;;;;;;;17.73;10.35;;;;;;;;;;4934407;29;20517;-79
2023/12/27 14:16:25;;;;;;;17.17;10.23;;;;;;;;;;4939267;28;20047;-79
2023/12/27 14:18:53;;;;;;;19.10;11.30;;;;;;;;;;4923151;28;20059;-79
2023/12/27 14:21:21;;;;;;;17.10;10.20;;;;;;;;;;4879451;29;1210633;-79
2023/12/27 14:23:47;;;;;;;15.57;10.23;;;;;;;;;;4920192;29;20051;-75
2023/12/27 14:26:13;;;;;;;13.27;9.52;;;;;;;;;;4920221;29;20047;-75
2023/12/27 14:28:40;;;;;;;13.57;9.80;;;;;;;;;;4919888;29;20050;-75
2023/12/27 14:31:06;;;;;;;13.23;9.95;;;;;;;;;;4920036;29;20031;-74
2023/12/27 14:33:32;;;;;;;14.40;9.10;;;;;;;;;;4919623;29;20055;-75